Time;durP1;ratioP1;P1;durP2;ratioP2;P2;SDS_P1;SDS_P2;PMS_P1;PMS_P2;Temp;Humidity;BMP_temperature;BMP_pressure;BME280_temperature;BME280_humidity;BME280_pressure;Samples;Min_cycle;Max_cycle;Signal;HPM_P1;HPM_P2
2021/08/17 00:01:48;;;;;;;9.38;1.50;;;;;;;12.17;100.00;99697.78;4957260;28;20038;-82
2021/08/17 00:04:13;;;;;;;11.35;1.48;;;;;;;12.14;100.00;99692.69;4957458;28;20031;-82
2021/08/17 00:06:38;;;;;;;11.90;2.80;;;;;;;12.15;100.00;99707.38;4956011;29;20134;-82
2021/08/17 00:09:04;;;;;;;12.38;1.55;;;;;;;12.13;100.00;99696.22;4957260;28;20031;-82
2021/08/17 00:11:30;;;;;;;8.57;1.83;;;;;;;12.10;100.00;99700.66;4955865;29;20476;-82
2021/08/17 00:13:55;;;;;;;8.93;1.58;;;;;;;12.06;100.00;99705.13;4955887;28;20403;-82
2021/08/17 00:16:20;;;;;;;9.52;1.40;;;;;;;12.00;100.00;99701.94;4955817;29;20034;-82
2021/08/17 00:18:46;;;;;;;11.98;1.58;;;;;;;12.00;100.00;99694.97;4955829;29;20387;-82
2021/08/17 00:21:13;;;;;;;8.10;1.50;;;;;;;12.00;100.00;99705.38;4957262;28;20038;-82
2021/08/17 00:23:38;;;;;;;9.77;1.83;;;;;;;11.98;100.00;99696.81;4956915;28;20134;-82
2021/08/17 00:26:04;;;;;;;14.05;2.03;;;;;;;11.96;100.00;99703.81;4956884;28;20122;-82
2021/08/17 00:28:29;;;;;;;10.40;1.40;;;;;;;12.00;100.00;99702.78;4955655;28;20046;-82
2021/08/17 00:30:54;;;;;;;9.70;1.73;;;;;;;12.03;100.00;99700.06;4955428;29;20059;-82
2021/08/17 00:33:19;;;;;;;10.82;1.70;;;;;;;12.06;100.00;99707.72;4957071;28;20038;-82
2021/08/17 00:35:45;;;;;;;6.88;1.40;;;;;;;12.09;100.00;99710.22;4957248;28;20500;-82
2021/08/17 00:38:10;;;;;;;10.10;1.42;;;;;;;12.12;100.00;99707.50;4957688;28;20035;-82
2021/08/17 00:40:35;;;;;;;8.80;1.70;;;;;;;12.13;100.00;99705.75;4956557;29;20114;-82
2021/08/17 00:43:02;;;;;;;12.65;1.70;;;;;;;12.09;100.00;99699.81;4955864;29;20037;-82
2021/08/17 00:45:29;;;;;;;8.32;1.52;;;;;;;12.05;100.00;99703.44;4956195;28;20444;-82
2021/08/17 00:47:57;;;;;;;11.77;1.70;;;;;;;12.06;100.00;99715.53;4956104;29;20032;-82
2021/08/17 00:50:25;;;;;;;9.18;1.35;;;;;;;12.03;100.00;99715.66;4955949;29;20027;-82
2021/08/17 00:52:51;;;;;;;14.10;2.20;;;;;;;12.03;100.00;99720.84;4955898;29;20034;-82
2021/08/17 00:55:17;;;;;;;11.13;2.38;;;;;;;12.05;100.00;99724.25;4956569;28;20034;-82
2021/08/17 00:57:43;;;;;;;10.13;1.63;;;;;;;12.06;100.00;99725.94;4956815;28;20373;-82
2021/08/17 01:00:09;;;;;;;11.23;1.92;;;;;;;12.07;100.00;99732.84;4955502;29;20117;-82
2021/08/17 01:02:35;;;;;;;12.45;2.00;;;;;;;12.03;100.00;99725.19;4955571;29;20479;-82
2021/08/17 01:05:00;;;;;;;10.02;1.60;;;;;;;12.07;100.00;99737.16;4955300;28;20220;-82
2021/08/17 01:07:26;;;;;;;15.02;1.75;;;;;;;12.04;100.00;99726.88;4956435;29;20499;-82
2021/08/17 01:09:51;;;;;;;7.85;1.55;;;;;;;12.00;100.00;99720.97;4956108;29;20031;-82
2021/08/17 01:12:16;;;;;;;9.63;1.50;;;;;;;11.98;100.00;99720.19;4956834;28;20038;-82
2021/08/17 01:14:42;;;;;;;8.43;1.98;;;;;;;11.91;100.00;99719.53;4956310;28;20504;-82
2021/08/17 01:17:07;;;;;;;12.73;1.67;;;;;;;11.89;100.00;99728.31;4955982;28;20030;-82
2021/08/17 01:19:35;;;;;;;10.63;1.83;;;;;;;11.90;100.00;99724.81;4954798;29;20031;-82
2021/08/17 01:22:00;;;;;;;10.32;2.15;;;;;;;11.90;100.00;99735.22;4955117;29;20377;-82
2021/08/17 01:24:25;;;;;;;11.98;1.98;;;;;;;11.90;100.00;99730.84;4955025;28;20029;-82
2021/08/17 01:26:50;;;;;;;8.85;1.45;;;;;;;11.94;100.00;99731.59;4955287;29;20396;-82
2021/08/17 01:29:16;;;;;;;9.95;1.50;;;;;;;11.96;100.00;99737.59;4955174;29;20027;-82
2021/08/17 01:31:42;;;;;;;10.55;1.88;;;;;;;11.98;100.00;99738.38;4956166;28;20030;-82
2021/08/17 01:34:07;;;;;;;7.68;1.30;;;;;;;12.00;100.00;99738.31;4955107;28;20113;-82
2021/08/17 01:36:33;;;;;;;9.70;1.65;;;;;;;11.99;100.00;99745.25;4956169;28;20031;-82
2021/08/17 01:38:58;;;;;;;11.77;1.80;;;;;;;12.02;100.00;99752.94;4955159;29;20035;-82
2021/08/17 01:41:24;;;;;;;10.27;1.70;;;;;;;11.97;100.00;99758.31;4954850;29;20381;-82
2021/08/17 01:43:49;;;;;;;11.27;2.08;;;;;;;11.98;100.00;99759.19;4955282;28;20031;-82
2021/08/17 01:46:15;;;;;;;16.20;2.58;;;;;;;11.89;100.00;99749.97;4954604;29;20031;-82
2021/08/17 01:48:41;;;;;;;12.52;1.90;;;;;;;11.85;100.00;99757.91;4954780;29;20027;-82
2021/08/17 01:51:07;;;;;;;10.75;1.75;;;;;;;11.81;100.00;99761.50;4955604;28;20385;-82
2021/08/17 01:53:33;;;;;;;9.18;1.67;;;;;;;11.73;100.00;99770.41;4954258;28;20432;-82
2021/08/17 01:56:22;;;;;;;11.45;1.67;;;;;;;11.71;100.00;99763.59;4954644;29;20031;-82
2021/08/17 01:58:48;;;;;;;4.93;0.98;;;;;;;11.74;100.00;99768.66;4954869;29;20440;-82
2021/08/17 02:01:13;;;;;;;7.15;1.30;;;;;;;11.74;100.00;99779.06;4954306;29;20022;-83
2021/08/17 02:03:39;;;;;;;8.02;1.60;;;;;;;11.73;100.00;99790.38;4955643;28;20071;-82
2021/08/17 02:06:05;;;;;;;8.40;1.50;;;;;;;11.70;100.00;99786.13;4956315;29;20078;-83
2021/08/17 02:08:31;;;;;;;9.40;1.42;;;;;;;11.65;100.00;99787.19;4956032;29;20492;-83
2021/08/17 02:10:57;;;;;;;9.68;1.60;;;;;;;11.62;100.00;99787.28;4957719;28;20031;-83
2021/08/17 02:13:23;;;;;;;6.60;1.20;;;;;;;11.57;100.00;99783.97;4958655;28;20058;-83
2021/08/17 02:15:49;;;;;;;10.30;1.38;;;;;;;11.55;100.00;99793.59;4956015;29;20046;-82
2021/08/17 02:18:14;;;;;;;11.68;1.75;;;;;;;11.59;100.00;99795.19;4961659;28;20047;-82
2021/08/17 02:20:40;;;;;;;11.90;1.73;;;;;;;11.55;100.00;99796.19;4960507;29;20365;-82
2021/08/17 02:23:06;;;;;;;6.90;1.60;;;;;;;11.59;100.00;99802.97;4961371;29;20432;-82
2021/08/17 02:25:31;;;;;;;8.25;1.38;;;;;;;11.64;100.00;99806.28;4962559;28;20463;-82
2021/08/17 02:27:56;;;;;;;10.52;1.38;;;;;;;11.67;100.00;99807.00;4962887;28;20082;-82
2021/08/17 02:30:22;;;;;;;9.60;1.70;;;;;;;11.70;100.00;99806.91;4961733;29;20023;-82
2021/08/17 02:32:47;;;;;;;5.88;1.52;;;;;;;11.71;100.00;99802.53;4961079;29;20027;-82
2021/08/17 02:35:12;;;;;;;9.93;2.08;;;;;;;11.68;100.00;99808.69;4962323;28;20077;-82
2021/08/17 02:37:38;;;;;;;10.35;2.30;;;;;;;11.72;100.00;99799.03;4960432;29;20027;-82
2021/08/17 02:40:04;;;;;;;11.80;1.60;;;;;;;11.71;100.00;99798.19;4962263;28;20034;-82
2021/08/17 02:42:30;;;;;;;8.10;1.60;;;;;;;11.70;100.00;99806.91;4962286;29;20035;-82
2021/08/17 02:44:56;;;;;;;13.27;2.10;;;;;;;11.76;100.00;99811.03;4961624;28;20031;-82
2021/08/17 02:47:21;;;;;;;10.50;1.88;;;;;;;11.80;100.00;99810.00;4961206;29;20503;-82
2021/08/17 02:49:46;;;;;;;8.15;1.88;;;;;;;11.84;100.00;99805.56;4960669;29;20074;-82
2021/08/17 02:52:11;;;;;;;8.23;1.48;;;;;;;11.86;100.00;99806.38;4960963;29;20027;-82
2021/08/17 02:54:39;;;;;;;7.97;1.83;;;;;;;11.84;100.00;99816.78;4962123;28;20492;-82
2021/08/17 02:57:04;;;;;;;9.73;1.80;;;;;;;11.82;100.00;99812.53;4959813;29;20031;-82
2021/08/17 02:59:31;;;;;;;14.27;2.25;;;;;;;11.80;100.00;99819.56;4960061;29;20026;-82
2021/08/17 03:01:56;;;;;;;7.88;1.35;;;;;;;11.86;100.00;99821.97;4960103;29;20027;-82
2021/08/17 03:04:22;;;;;;;5.65;1.30;;;;;;;11.87;100.00;99813.28;4959484;28;20053;-82
2021/08/17 03:06:47;;;;;;;11.77;1.65;;;;;;;11.91;100.00;99814.84;4960015;29;20023;-82
2021/08/17 03:09:12;;;;;;;10.68;1.95;;;;;;;11.96;100.00;99813.78;4960695;28;20034;-82
2021/08/17 03:11:38;;;;;;;9.23;1.90;;;;;;;12.00;100.00;99816.28;4960334;29;20448;-82
2021/08/17 03:14:04;;;;;;;10.13;1.80;;;;;;;12.00;100.00;99806.72;4962179;28;20081;-82
2021/08/17 03:16:29;;;;;;;12.30;2.08;;;;;;;12.04;100.00;99816.13;4960961;29;20024;-82
2021/08/17 03:18:55;;;;;;;16.38;2.72;;;;;;;12.01;100.00;99816.25;4960068;29;20034;-82
2021/08/17 03:21:20;;;;;;;13.40;1.80;;;;;;;11.97;100.00;99812.88;4962055;28;20034;-82
2021/08/17 03:23:45;;;;;;;15.00;2.38;;;;;;;12.00;100.00;99829.28;4961680;28;20494;-82
2021/08/17 03:26:11;;;;;;;10.00;2.38;;;;;;;12.02;100.00;99830.91;4960267;29;20038;-82
2021/08/17 03:28:37;;;;;;;11.55;2.10;;;;;;;12.02;100.00;99832.69;4958070;28;20038;-82
2021/08/17 03:31:02;;;;;;;14.68;2.50;;;;;;;11.95;100.00;99840.69;4958845;29;20030;-82
2021/08/17 03:33:27;;;;;;;13.57;2.92;;;;;;;11.96;100.00;99849.31;4959213;28;20055;-82
2021/08/17 03:35:53;;;;;;;16.95;2.75;;;;;;;11.97;100.00;99836.25;4959246;29;20027;-82
2021/08/17 03:38:19;;;;;;;13.80;3.35;;;;;;;12.00;100.00;99844.88;4958748;29;20027;-82
2021/08/17 03:40:44;;;;;;;15.52;2.38;;;;;;;12.01;100.00;99849.16;4958837;29;20015;-82
2021/08/17 03:43:11;;;;;;;15.45;2.58;;;;;;;12.01;100.00;99847.44;4960782;28;20077;-82
2021/08/17 03:45:36;;;;;;;16.08;3.25;;;;;;;11.97;100.00;99851.84;4959948;28;20034;-82
2021/08/17 03:48:02;;;;;;;17.38;3.40;;;;;;;11.94;100.00;99846.78;4958326;29;20023;-82
2021/08/17 03:50:28;;;;;;;14.73;2.78;;;;;;;11.93;100.00;99847.69;4958738;29;20034;-82
2021/08/17 03:52:53;;;;;;;13.20;2.50;;;;;;;11.98;100.00;99852.72;4957950;29;20094;-82
2021/08/17 03:55:20;;;;;;;15.20;2.75;;;;;;;12.05;100.00;99855.97;4958724;28;20506;-82
2021/08/17 03:57:45;;;;;;;11.80;2.67;;;;;;;12.04;100.00;99859.44;4959533;28;20030;-82
2021/08/17 04:00:14;;;;;;;12.13;2.63;;;;;;;12.05;100.00;99854.19;4957788;29;20031;-82
2021/08/17 04:02:41;;;;;;;18.10;2.70;;;;;;;12.04;100.00;99857.72;4958087;29;20046;-82
2021/08/17 04:05:07;;;;;;;15.27;2.28;;;;;;;12.06;100.00;99855.03;4960771;28;20026;-82
2021/08/17 04:07:33;;;;;;;12.85;2.25;;;;;;;12.07;100.00;99865.41;4957496;29;20078;-82
2021/08/17 04:09:58;;;;;;;16.38;2.47;;;;;;;12.06;100.00;99871.47;4957606;29;20114;-82
2021/08/17 04:12:23;;;;;;;16.70;2.58;;;;;;;11.98;100.00;99873.53;4957458;28;20019;-82
2021/08/17 04:14:49;;;;;;;13.43;3.13;;;;;;;12.06;100.00;99874.09;4958351;28;20109;-82
2021/08/17 04:17:14;;;;;;;13.30;2.88;;;;;;;12.06;100.00;99863.69;4957769;29;20046;-82
2021/08/17 04:19:40;;;;;;;12.48;2.03;;;;;;;12.07;100.00;99862.81;4956831;29;20480;-82
2021/08/17 04:22:06;;;;;;;13.48;2.30;;;;;;;12.06;100.00;99863.69;4959252;28;20050;-82
2021/08/17 04:24:31;;;;;;;13.77;2.58;;;;;;;12.11;100.00;99869.56;4958269;28;20027;-82
2021/08/17 04:26:56;;;;;;;17.38;3.85;;;;;;;12.12;100.00;99867.81;4959152;28;20037;-82
2021/08/17 04:29:22;;;;;;;12.63;2.53;;;;;;;12.12;100.00;99868.66;4957735;29;20027;-82
2021/08/17 04:31:47;;;;;;;17.48;3.00;;;;;;;12.15;100.00;99878.97;4958510;28;20038;-82
2021/08/17 04:34:12;;;;;;;13.75;2.90;;;;;;;12.13;100.00;99879.91;4958616;28;20027;-82
2021/08/17 04:36:38;;;;;;;13.90;2.20;;;;;;;12.17;100.00;99877.16;4957159;29;20046;-82
2021/08/17 04:39:03;;;;;;;15.20;2.67;;;;;;;12.15;100.00;99875.50;4957831;28;20480;-82
2021/08/17 04:41:28;;;;;;;12.23;2.67;;;;;;;12.19;100.00;99884.88;4957655;28;20026;-82
2021/08/17 04:43:54;;;;;;;14.82;2.30;;;;;;;12.17;100.00;99882.34;4958671;28;20038;-82
2021/08/17 04:46:19;;;;;;;16.17;3.38;;;;;;;12.23;100.00;99885.66;4956448;28;20031;-82
2021/08/17 04:48:44;;;;;;;13.32;2.50;;;;;;;12.27;100.00;99889.84;4957231;29;20030;-82
2021/08/17 04:51:10;;;;;;;12.55;2.53;;;;;;;12.31;100.00;99899.22;4958160;28;20106;-82
2021/08/17 04:53:37;;;;;;;18.92;2.78;;;;;;;12.35;100.00;99898.22;4956225;28;20035;-82
2021/08/17 04:56:02;;;;;;;17.25;3.35;;;;;;;12.39;100.00;99894.59;4979884;22;20130;-79
2021/08/17 04:58:27;;;;;;;12.13;2.50;;;;;;;12.43;100.00;99896.16;4957352;28;20054;-79
2021/08/17 05:00:53;;;;;;;13.57;2.60;;;;;;;12.49;100.00;99908.09;4956167;29;20051;-79
2021/08/17 05:03:19;;;;;;;12.00;2.42;;;;;;;12.47;100.00;99902.97;4957567;28;20369;-79
2021/08/17 05:05:44;;;;;;;14.25;2.83;;;;;;;12.47;100.00;99902.97;4957045;28;20027;-79
2021/08/17 05:08:10;;;;;;;14.55;2.28;;;;;;;12.45;100.00;99909.97;4955772;29;20019;-79
2021/08/17 05:10:36;;;;;;;14.82;3.22;;;;;;;12.48;100.00;99919.41;4956865;28;20031;-79
2021/08/17 05:13:03;;;;;;;14.45;2.60;;;;;;;12.49;100.00;99915.91;4957235;28;20567;-79
2021/08/17 05:15:30;;;;;;;19.67;3.05;;;;;;;12.49;100.00;99921.09;4956882;28;20061;-79
2021/08/17 05:17:55;;;;;;;14.63;2.78;;;;;;;12.53;100.00;99922.69;4955627;29;20023;-79
2021/08/17 05:20:21;;;;;;;18.30;3.15;;;;;;;12.56;100.00;99925.16;4956207;28;20016;-78
2021/08/17 05:22:46;;;;;;;16.20;2.67;;;;;;;12.60;100.00;99922.41;4956092;28;20023;-78
2021/08/17 05:25:11;;;;;;;11.13;2.40;;;;;;;12.66;100.00;99927.41;4956781;28;20102;-79
2021/08/17 05:27:36;;;;;;;15.90;2.47;;;;;;;12.67;100.00;99930.84;4956889;28;20479;-79
2021/08/17 05:30:02;;;;;;;16.52;2.45;;;;;;;12.64;100.00;99925.75;4956270;28;20395;-78
2021/08/17 05:32:28;;;;;;;13.23;2.97;;;;;;;12.61;100.00;99924.09;4957299;28;20082;-79
2021/08/17 05:34:53;;;;;;;14.18;2.95;;;;;;;12.66;100.00;99936.97;4955977;28;20031;-79
2021/08/17 05:37:18;;;;;;;13.85;2.78;;;;;;;12.76;100.00;99930.50;4957525;28;20027;-80
2021/08/17 05:39:44;;;;;;;16.65;3.45;;;;;;;12.97;100.00;99928.84;4957500;28;20047;-79
2021/08/17 05:42:10;;;;;;;16.60;3.33;;;;;;;13.16;100.00;99920.31;4955963;29;20479;-79
2021/08/17 05:44:40;;;;;;;12.10;2.78;;;;;;;13.09;100.00;99925.78;4957535;28;20047;-79
2021/08/17 05:47:05;;;;;;;12.77;3.45;;;;;;;13.17;100.00;99924.63;4957615;28;20034;-79
2021/08/17 05:49:31;;;;;;;16.35;3.08;;;;;;;13.08;100.00;99926.69;4956168;29;20031;-79
2021/08/17 05:51:56;;;;;;;12.80;2.75;;;;;;;13.71;100.00;99939.00;4956823;28;20032;-79
2021/08/17 05:54:23;;;;;;;12.75;2.90;;;;;;;13.54;100.00;99939.66;4957135;28;20038;-79
2021/08/17 05:56:48;;;;;;;12.68;2.47;;;;;;;13.81;100.00;99938.53;4958537;28;20034;-79
2021/08/17 05:59:14;;;;;;;14.15;2.35;;;;;;;13.64;100.00;99937.53;4956821;29;20035;-79
2021/08/17 06:01:39;;;;;;;12.23;2.47;;;;;;;13.71;100.00;99941.59;4958131;29;20023;-79
2021/08/17 06:04:04;;;;;;;8.80;2.33;;;;;;;13.96;100.00;99942.25;4958665;28;20057;-79
2021/08/17 06:06:29;;;;;;;14.30;2.55;;;;;;;14.10;100.00;99948.66;4959476;28;20023;-79
2021/08/17 06:08:54;;;;;;;11.75;2.50;;;;;;;14.01;100.00;99947.31;4958693;28;20419;-79
2021/08/17 06:11:20;;;;;;;11.23;2.22;;;;;;;14.09;100.00;99950.41;4956604;28;20038;-79
2021/08/17 06:13:45;;;;;;;12.95;2.80;;;;;;;13.88;100.00;99959.97;4955878;29;20086;-79
2021/08/17 06:16:10;;;;;;;7.57;2.08;;;;;;;13.92;100.00;99955.50;4957646;28;20027;-79
2021/08/17 06:18:35;;;;;;;9.65;1.90;;;;;;;13.52;100.00;99947.56;4958136;28;20384;-80
2021/08/17 06:21:01;;;;;;;8.25;1.92;;;;;;;13.45;100.00;99953.91;4955750;29;20019;-79
2021/08/17 06:23:26;;;;;;;10.82;2.10;;;;;;;13.33;100.00;99957.00;4957857;28;20157;-79
2021/08/17 06:25:51;;;;;;;7.68;1.67;;;;;;;13.42;100.00;99959.22;4956436;28;20488;-79
2021/08/17 06:28:17;;;;;;;7.57;1.55;;;;;;;13.27;100.00;99946.81;4957727;28;20046;-79
2021/08/17 06:30:42;;;;;;;7.35;1.77;;;;;;;13.20;100.00;99942.72;4955672;29;20476;-80
2021/08/17 06:33:08;;;;;;;6.03;1.55;;;;;;;13.05;100.00;99954.56;4956679;29;20193;-79
2021/08/17 06:35:33;;;;;;;5.97;1.33;;;;;;;12.95;100.00;99959.28;4956178;28;20034;-79
2021/08/17 06:37:59;;;;;;;5.32;1.30;;;;;;;13.00;100.00;99972.13;4957208;29;20031;-80
2021/08/17 06:40:25;;;;;;;12.00;1.90;;;;;;;13.02;100.00;99965.09;4958245;28;20031;-79
2021/08/17 06:42:51;;;;;;;6.15;1.60;;;;;;;12.81;100.00;99964.19;4957555;28;20074;-79
2021/08/17 06:45:16;;;;;;;6.10;1.77;;;;;;;12.78;100.00;99961.69;4956713;28;20031;-79
2021/08/17 06:47:56;;;;;;;7.40;1.35;;;;;;;12.76;100.00;99968.69;4957088;28;20110;-79
2021/08/17 06:50:21;;;;;;;6.13;1.35;;;;;;;12.57;100.00;99971.13;4955751;29;20044;-80
2021/08/17 06:52:47;;;;;;;5.00;1.42;;;;;;;12.56;100.00;99970.28;4957031;28;20055;-79
2021/08/17 06:55:13;;;;;;;5.63;1.73;;;;;;;12.59;100.00;99970.16;4955815;28;20047;-79
2021/08/17 06:57:39;;;;;;;5.60;1.20;;;;;;;12.50;100.00;99980.91;4955705;29;20027;-80
2021/08/17 07:00:07;;;;;;;5.18;1.30;;;;;;;12.39;100.00;99983.00;4957019;28;20098;-80
2021/08/17 07:02:32;;;;;;;5.53;1.20;;;;;;;12.32;100.00;99982.38;4957473;28;20079;-80
2021/08/17 07:04:58;;;;;;;5.85;1.52;;;;;;;12.47;100.00;99980.13;4960623;28;20019;-79
2021/08/17 07:07:23;;;;;;;4.45;1.45;;;;;;;12.49;100.00;99976.56;4959657;29;20031;-80
2021/08/17 07:09:48;;;;;;;5.25;1.27;;;;;;;12.51;100.00;99979.97;4959692;29;20042;-80
2021/08/17 07:12:13;;;;;;;4.88;1.30;;;;;;;12.61;100.00;99983.94;4959449;29;20119;-79
2021/08/17 07:14:39;;;;;;;4.20;0.95;;;;;;;12.50;100.00;99985.22;4960675;28;20035;-79
2021/08/17 07:17:04;;;;;;;6.65;1.20;;;;;;;12.41;100.00;99989.88;4958520;29;20031;-79
2021/08/17 07:19:31;;;;;;;4.50;1.25;;;;;;;12.34;100.00;99992.72;4960012;28;20102;-79
2021/08/17 07:21:56;;;;;;;3.83;0.90;;;;;;;12.36;100.00;99996.13;4960962;28;20364;-80
2021/08/17 07:24:21;;;;;;;6.97;1.63;;;;;;;12.35;100.00;99997.03;4961101;28;20061;-79
2021/08/17 07:26:47;;;;;;;6.53;1.30;;;;;;;12.37;100.00;100000.41;4959449;28;20023;-79
2021/08/17 07:29:12;;;;;;;8.57;1.65;;;;;;;12.42;100.00;100001.09;4959359;28;20027;-79
2021/08/17 07:31:38;;;;;;;7.78;1.50;;;;;;;12.33;100.00;99986.66;4959426;28;20111;-79
2021/08/17 07:34:05;;;;;;;4.85;1.30;;;;;;;12.52;100.00;99992.06;4958440;28;20483;-80
2021/08/17 07:36:31;;;;;;;7.38;1.60;;;;;;;12.74;100.00;99999.13;4959089;29;20119;-79
2021/08/17 07:38:56;;;;;;;5.78;1.50;;;;;;;12.71;100.00;99994.00;4960752;29;20033;-80
2021/08/17 07:41:22;;;;;;;4.70;1.40;;;;;;;12.60;100.00;100003.06;4959599;29;20091;-80
2021/08/17 07:43:47;;;;;;;4.93;1.10;;;;;;;12.51;100.00;99995.59;4960915;28;20042;-79
2021/08/17 07:46:12;;;;;;;6.43;1.35;;;;;;;12.60;100.00;99999.63;4958456;28;20034;-80
2021/08/17 07:48:38;;;;;;;5.45;1.27;;;;;;;12.64;100.00;100003.81;4958480;28;20069;-79
2021/08/17 07:51:03;;;;;;;7.20;1.30;;;;;;;12.64;100.00;100012.44;4958010;28;20027;-79
2021/08/17 07:53:28;;;;;;;9.13;1.50;;;;;;;12.63;100.00;100012.53;4957341;29;20027;-79
2021/08/17 07:55:54;;;;;;;6.15;1.45;;;;;;;12.53;100.00;100009.41;4957860;28;20126;-79
2021/08/17 07:58:19;;;;;;;8.32;2.08;;;;;;;12.64;100.00;100004.66;4957952;28;20106;-79
2021/08/17 08:00:44;;;;;;;9.02;2.15;;;;;;;12.74;100.00;99996.50;4956631;29;20117;-79
2021/08/17 08:03:10;;;;;;;7.28;1.80;;;;;;;12.96;100.00;100005.25;4956437;29;20058;-79
2021/08/17 08:05:36;;;;;;;9.27;2.13;;;;;;;12.94;100.00;100004.44;4957719;28;20027;-79
2021/08/17 08:08:01;;;;;;;9.90;2.20;;;;;;;12.99;100.00;100012.94;4957483;28;20023;-80
2021/08/17 08:10:26;;;;;;;7.32;2.00;;;;;;;12.97;100.00;100006.94;4956071;29;20547;-79
2021/08/17 08:12:52;;;;;;;8.15;1.85;;;;;;;12.94;100.00;100004.44;4957976;28;20023;-79
2021/08/17 08:15:17;;;;;;;10.82;2.47;;;;;;;12.92;100.00;100013.22;4958131;28;20053;-79
2021/08/17 08:17:42;;;;;;;9.98;2.15;;;;;;;12.81;100.00;100011.03;4958951;28;20035;-79
2021/08/17 08:20:08;;;;;;;11.57;2.10;;;;;;;12.79;100.00;100003.25;4958486;28;20019;-79
2021/08/17 08:22:34;;;;;;;12.85;2.78;;;;;;;12.77;100.00;100018.06;4956922;29;20078;-79
2021/08/17 08:24:59;;;;;;;10.20;2.20;;;;;;;12.84;100.00;100022.16;4958660;28;20030;-79
2021/08/17 08:27:24;;;;;;;11.05;2.58;;;;;;;12.66;100.00;100023.66;4957318;29;20031;-79
2021/08/17 08:29:50;;;;;;;8.80;2.17;;;;;;;12.84;100.00;100016.97;4957076;29;20027;-79
2021/08/17 08:32:15;;;;;;;12.40;2.40;;;;;;;13.00;100.00;100022.44;4958991;29;20535;-79
2021/08/17 08:34:40;;;;;;;13.10;2.45;;;;;;;12.88;100.00;100025.50;4956967;28;20031;-79
2021/08/17 08:37:06;;;;;;;11.98;3.22;;;;;;;12.91;100.00;100028.00;4958455;28;20054;-79
2021/08/17 08:39:33;;;;;;;14.50;2.75;;;;;;;12.95;100.00;100026.97;4958397;28;20477;-79
2021/08/17 08:41:58;;;;;;;14.45;3.03;;;;;;;12.89;100.00;100037.59;4957042;29;20030;-80
2021/08/17 08:44:24;;;;;;;15.32;2.95;;;;;;;13.11;100.00;100029.84;4958249;28;20396;-79
2021/08/17 08:46:51;;;;;;;14.73;3.40;;;;;;;13.35;100.00;100036.78;4958116;28;20031;-80
2021/08/17 08:49:17;;;;;;;12.57;3.15;;;;;;;13.45;100.00;100028.59;4956852;29;20027;-80
2021/08/17 08:51:43;;;;;;;15.23;3.33;;;;;;;13.39;100.00;100014.06;4956737;29;20067;-80
2021/08/17 08:54:08;;;;;;;12.95;2.90;;;;;;;13.14;100.00;100027.97;4956599;28;20449;-79
2021/08/17 08:56:34;;;;;;;16.27;3.08;;;;;;;13.36;100.00;100035.00;4956905;29;20476;-79
2021/08/17 08:59:00;;;;;;;19.25;3.00;;;;;;;13.41;100.00;100037.44;4956414;29;20387;-79
2021/08/17 09:01:25;;;;;;;12.48;3.15;;;;;;;13.39;100.00;100031.44;4958354;28;20034;-80
2021/08/17 09:03:53;;;;;;;11.05;2.63;;;;;;;13.40;100.00;100031.41;4958496;28;20078;-79
2021/08/17 09:06:24;;;;;;;13.63;2.53;;;;;;;13.48;100.00;100023.28;4958096;28;20023;-79
2021/08/17 09:09:14;;;;;;;16.63;3.25;;;;;;;13.32;100.00;100034.28;4957048;29;20027;-79
2021/08/17 09:11:48;;;;;;;14.23;2.58;;;;;;;13.41;100.00;100038.28;4957748;28;20399;-79
2021/08/17 09:14:21;;;;;;;13.15;2.35;;;;;;;13.47;100.00;100035.47;4957631;28;20420;-79
2021/08/17 09:16:48;;;;;;;12.60;3.00;;;;;;;13.58;100.00;100046.31;4955536;29;20377;-79
2021/08/17 09:19:30;;;;;;;13.43;2.47;;;;;;;13.71;100.00;100057.13;4955631;29;20058;-80
2021/08/17 09:21:59;;;;;;;15.20;2.78;;;;;;;13.71;100.00;100044.09;4957049;28;20023;-79
2021/08/17 09:24:33;;;;;;;16.10;2.80;;;;;;;13.58;100.00;100058.50;4956521;28;20023;-79
2021/08/17 09:27:04;;;;;;;11.90;2.63;;;;;;;13.53;100.00;100052.63;4954615;28;20058;-79
2021/08/17 09:29:33;;;;;;;11.88;2.58;;;;;;;13.46;100.00;100058.97;4955298;29;20407;-80
2021/08/17 09:32:11;;;;;;;17.42;3.08;;;;;;;13.25;100.00;100056.25;4954957;29;20030;-79
2021/08/17 09:34:36;;;;;;;15.05;2.85;;;;;;;13.38;100.00;100072.28;4955173;28;20094;-80
2021/08/17 09:37:07;;;;;;;13.00;2.55;;;;;;;13.27;100.00;100064.88;4956448;28;20464;-80
2021/08/17 09:39:39;;;;;;;14.75;2.50;;;;;;;13.22;100.00;100066.75;4954855;29;20027;-79
2021/08/17 09:42:09;;;;;;;19.50;3.00;;;;;;;13.07;100.00;100056.91;4956394;28;20070;-80
2021/08/17 09:44:35;;;;;;;12.45;2.85;;;;;;;13.11;100.00;100051.53;4955005;28;20565;-80
2021/08/17 09:47:00;;;;;;;14.73;2.45;;;;;;;13.19;100.00;100060.81;4956364;28;20114;-80
2021/08/17 09:49:29;;;;;;;17.83;3.30;;;;;;;13.20;100.00;100052.09;4954921;29;20074;-80
2021/08/17 09:51:55;;;;;;;14.35;2.80;;;;;;;13.40;100.00;100054.00;4956130;28;20094;-79
2021/08/17 09:54:22;;;;;;;14.75;3.03;;;;;;;13.35;100.00;100049.78;4956249;28;20035;-79
2021/08/17 09:57:04;;;;;;;19.65;2.65;;;;;;;13.38;100.00;100059.25;4956706;28;20038;-80
2021/08/17 09:59:35;;;;;;;12.95;2.47;;;;;;;13.38;100.00;100063.63;4956318;28;20085;-79
2021/08/17 10:02:01;;;;;;;11.63;2.38;;;;;;;13.34;100.00;100061.13;4954940;29;20050;-80
2021/08/17 10:04:27;;;;;;;14.23;2.35;;;;;;;13.18;100.00;100062.59;4954507;28;20399;-79
2021/08/17 10:06:58;;;;;;;19.27;3.42;;;;;;;13.17;100.00;100054.81;4954541;29;20451;-80
2021/08/17 10:09:25;;;;;;;11.30;2.22;;;;;;;13.14;100.00;100060.97;4956322;28;20027;-79
2021/08/17 10:11:51;;;;;;;9.50;2.42;;;;;;;13.23;100.00;100067.59;4954631;29;20027;-80
2021/08/17 10:14:17;;;;;;;12.30;2.42;;;;;;;13.27;100.00;100072.69;4955553;28;20024;-79
2021/08/17 10:16:44;;;;;;;11.60;2.17;;;;;;;13.20;100.00;100068.56;4955789;28;20081;-79
2021/08/17 10:19:12;;;;;;;13.77;3.22;;;;;;;13.28;100.00;100066.56;4955585;28;20551;-79
2021/08/17 10:21:42;;;;;;;9.82;2.20;;;;;;;13.26;100.00;100063.16;4955351;28;20131;-79
2021/08/17 10:24:43;;;;;;;12.85;2.72;;;;;;;13.34;100.00;100063.72;4955466;28;20026;-79
2021/08/17 10:27:25;;;;;;;13.55;2.88;;;;;;;13.41;100.00;100060.91;4934251;29;20030;-79
2021/08/17 10:29:53;;;;;;;13.95;2.40;;;;;;;13.37;100.00;100061.94;4953149;28;20035;-79
2021/08/17 10:32:46;;;;;;;11.52;2.22;;;;;;;13.22;100.00;100061.56;4954079;29;20030;-79
2021/08/17 10:35:26;;;;;;;11.20;2.03;;;;;;;13.67;100.00;100052.94;4955234;28;20027;-79
2021/08/17 10:38:12;;;;;;;14.73;2.42;;;;;;;14.00;100.00;100062.91;4955129;28;20126;-79
2021/08/17 10:40:49;;;;;;;13.55;3.15;;;;;;;14.38;100.00;100053.53;4959126;29;20084;-79
2021/08/17 10:43:18;;;;;;;13.63;2.78;;;;;;;14.39;100.00;100044.78;4959299;28;20038;-79
2021/08/17 10:45:55;;;;;;;12.32;2.30;;;;;;;14.48;100.00;100052.22;4959041;28;20078;-79
2021/08/17 10:48:45;;;;;;;10.82;2.55;;;;;;;14.96;100.00;100044.94;4959280;28;20458;-79
2021/08/17 10:51:30;;;;;;;13.35;2.40;;;;;;;15.10;100.00;100053.03;4958944;28;20031;-79
2021/08/17 10:54:05;;;;;;;13.70;2.30;;;;;;;14.92;100.00;100049.47;4957404;28;20094;-79
2021/08/17 10:56:31;;;;;;;;;;;;;;;15.00;100.00;100048.31;4983222;23;20059;-81
2021/08/17 10:58:57;;;;;;;12.35;2.08;;;;;;;14.78;100.00;100057.09;4958656;28;20290;-81
2021/08/17 11:01:34;;;;;;;14.63;2.20;;;;;;;14.66;100.00;100065.44;4957397;29;20019;-81
2021/08/17 11:04:10;;;;;;;7.53;1.75;;;;;;;14.31;100.00;100057.28;4958792;28;20026;-81
2021/08/17 11:06:53;;;;;;;11.00;2.17;;;;;;;14.18;100.00;100054.34;4958083;28;20023;-81
2021/08/17 11:09:31;;;;;;;13.48;2.22;;;;;;;14.08;100.00;100066.06;4957418;29;20399;-81
2021/08/17 11:12:08;;;;;;;13.15;2.40;;;;;;;13.91;100.00;100069.34;4958486;28;20030;-81
2021/08/17 11:14:38;;;;;;;11.85;2.65;;;;;;;13.85;100.00;100080.00;4958419;28;20041;-81
2021/08/17 11:17:09;;;;;;;13.85;2.20;;;;;;;13.71;100.00;100082.34;4957361;29;20484;-81